sensor_id;sensor_type;location;lat;lon;timestamp;temperature;humidity
27759;DHT22;15148;48.972;12.794;2022-12-18T00:04:42;-5.00;99.90
27759;DHT22;15148;48.972;12.794;2022-12-18T00:09:44;-5.00;99.90
27759;DHT22;15148;48.972;12.794;2022-12-18T00:14:46;-5.00;99.90
27759;DHT22;15148;48.972;12.794;2022-12-18T00:19:48;-5.00;99.90
27759;DHT22;15148;48.972;12.794;2022-12-18T00:24:50;-5.00;99.90
27759;DHT22;15148;48.972;12.794;2022-12-18T00:29:52;-5.10;99.90
27759;DHT22;15148;48.972;12.794;2022-12-18T00:34:54;-5.10;99.90
27759;DHT22;15148;48.972;12.794;2022-12-18T00:39:55;-5.10;99.90
27759;DHT22;15148;48.972;12.794;2022-12-18T00:44:57;-5.10;99.90
27759;DHT22;15148;48.972;12.794;2022-12-18T00:49:59;-5.20;99.90
27759;DHT22;15148;48.972;12.794;2022-12-18T00:55:00;-5.30;99.90
27759;DHT22;15148;48.972;12.794;2022-12-18T01:00:09;-5.30;99.90
27759;DHT22;15148;48.972;12.794;2022-12-18T01:05:12;-5.60;99.90
27759;DHT22;15148;48.972;12.794;2022-12-18T01:10:14;-5.70;99.90
27759;DHT22;15148;48.972;12.794;2022-12-18T01:15:17;-5.80;99.90
27759;DHT22;15148;48.972;12.794;2022-12-18T01:20:19;-5.80;99.90
27759;DHT22;15148;48.972;12.794;2022-12-18T01:25:21;-5.90;99.90
27759;DHT22;15148;48.972;12.794;2022-12-18T01:30:25;-6.00;99.90
27759;DHT22;15148;48.972;12.794;2022-12-18T01:35:27;-6.20;99.90
27759;DHT22;15148;48.972;12.794;2022-12-18T01:40:29;-6.10;99.90
27759;DHT22;15148;48.972;12.794;2022-12-18T01:45:31;-6.10;99.90
27759;DHT22;15148;48.972;12.794;2022-12-18T01:50:34;-6.20;99.90
27759;DHT22;15148;48.972;12.794;2022-12-18T02:01:12;-6.00;99.90
27759;DHT22;15148;48.972;12.794;2022-12-18T02:06:34;-6.10;99.90
27759;DHT22;15148;48.972;12.794;2022-12-18T02:17:11;-6.00;99.90
27759;DHT22;15148;48.972;12.794;2022-12-18T02:22:33;-5.90;99.90
27759;DHT22;15148;48.972;12.794;2022-12-18T02:27:41;-5.80;99.90
27759;DHT22;15148;48.972;12.794;2022-12-18T02:32:51;-5.80;99.90
27759;DHT22;15148;48.972;12.794;2022-12-18T02:37:54;-5.90;99.90
27759;DHT22;15148;48.972;12.794;2022-12-18T02:43:03;-5.80;99.90
27759;DHT22;15148;48.972;12.794;2022-12-18T02:48:08;-5.90;99.90
27759;DHT22;15148;48.972;12.794;2022-12-18T02:53:17;-6.00;99.90
27759;DHT22;15148;48.972;12.794;2022-12-18T03:04:01;-5.90;99.90
27759;DHT22;15148;48.972;12.794;2022-12-18T03:09:09;-6.00;99.90
27759;DHT22;15148;48.972;12.794;2022-12-18T03:14:13;-6.10;99.90
27759;DHT22;15148;48.972;12.794;2022-12-18T03:19:20;-6.10;99.90
27759;DHT22;15148;48.972;12.794;2022-12-18T03:24:28;-6.00;99.90
27759;DHT22;15148;48.972;12.794;2022-12-18T03:29:51;-5.90;99.90
27759;DHT22;15148;48.972;12.794;2022-12-18T03:35:00;-6.10;99.90
27759;DHT22;15148;48.972;12.794;2022-12-18T03:40:08;-6.10;99.90
27759;DHT22;15148;48.972;12.794;2022-12-18T03:45:22;-6.20;99.90
27759;DHT22;15148;48.972;12.794;2022-12-18T03:50:39;-6.20;99.90
27759;DHT22;15148;48.972;12.794;2022-12-18T03:55:43;-6.00;99.90
27759;DHT22;15148;48.972;12.794;2022-12-18T04:00:48;-6.00;99.90
27759;DHT22;15148;48.972;12.794;2022-12-18T04:05:52;-5.90;99.90
27759;DHT22;15148;48.972;12.794;2022-12-18T04:10:56;-5.80;99.90
27759;DHT22;15148;48.972;12.794;2022-12-18T04:15:59;-5.80;99.90
27759;DHT22;15148;48.972;12.794;2022-12-18T04:21:02;-5.90;99.90
27759;DHT22;15148;48.972;12.794;2022-12-18T04:26:05;-5.80;99.90
27759;DHT22;15148;48.972;12.794;2022-12-18T04:31:18;-5.70;99.90
27759;DHT22;15148;48.972;12.794;2022-12-18T04:36:21;-5.70;99.90
27759;DHT22;15148;48.972;12.794;2022-12-18T04:41:23;-5.80;99.90
27759;DHT22;15148;48.972;12.794;2022-12-18T04:46:27;-6.00;99.90
27759;DHT22;15148;48.972;12.794;2022-12-18T04:51:29;-6.00;99.90
27759;DHT22;15148;48.972;12.794;2022-12-18T04:56:31;-6.10;99.90
27759;DHT22;15148;48.972;12.794;2022-12-18T05:01:33;-6.20;99.90
27759;DHT22;15148;48.972;12.794;2022-12-18T05:06:37;-6.20;99.90
27759;DHT22;15148;48.972;12.794;2022-12-18T05:11:39;-6.40;99.90
27759;DHT22;15148;48.972;12.794;2022-12-18T05:16:40;-6.30;99.90
27759;DHT22;15148;48.972;12.794;2022-12-18T05:21:42;-6.30;99.90
27759;DHT22;15148;48.972;12.794;2022-12-18T05:26:44;-6.40;99.90
27759;DHT22;15148;48.972;12.794;2022-12-18T05:31:46;-6.50;99.90
27759;DHT22;15148;48.972;12.794;2022-12-18T05:36:48;-6.50;99.90
27759;DHT22;15148;48.972;12.794;2022-12-18T05:41:50;-6.50;99.90
27759;DHT22;15148;48.972;12.794;2022-12-18T05:46:51;-6.50;99.90
27759;DHT22;15148;48.972;12.794;2022-12-18T05:51:53;-6.50;99.90
27759;DHT22;15148;48.972;12.794;2022-12-18T05:56:55;-6.50;99.90
27759;DHT22;15148;48.972;12.794;2022-12-18T06:01:57;-6.60;99.90
27759;DHT22;15148;48.972;12.794;2022-12-18T06:06:59;-6.60;99.90
27759;DHT22;15148;48.972;12.794;2022-12-18T06:12:01;-6.60;99.90
27759;DHT22;15148;48.972;12.794;2022-12-18T06:17:02;-6.60;99.90
27759;DHT22;15148;48.972;12.794;2022-12-18T06:22:04;-6.90;99.90
27759;DHT22;15148;48.972;12.794;2022-12-18T06:27:06;-7.20;99.90
27759;DHT22;15148;48.972;12.794;2022-12-18T06:32:08;-7.20;99.90
27759;DHT22;15148;48.972;12.794;2022-12-18T06:37:10;-7.10;99.90
27759;DHT22;15148;48.972;12.794;2022-12-18T06:42:12;-7.20;99.90
27759;DHT22;15148;48.972;12.794;2022-12-18T06:47:13;-7.50;99.90
27759;DHT22;15148;48.972;12.794;2022-12-18T06:52:16;-7.40;99.90
27759;DHT22;15148;48.972;12.794;2022-12-18T06:57:17;-7.40;99.90
27759;DHT22;15148;48.972;12.794;2022-12-18T07:02:19;-7.50;99.90
27759;DHT22;15148;48.972;12.794;2022-12-18T07:07:21;-7.70;99.90
27759;DHT22;15148;48.972;12.794;2022-12-18T07:12:23;-7.80;99.90
27759;DHT22;15148;48.972;12.794;2022-12-18T07:17:25;-7.90;99.90
27759;DHT22;15148;48.972;12.794;2022-12-18T07:22:26;-8.00;99.90
27759;DHT22;15148;48.972;12.794;2022-12-18T07:27:28;-8.00;99.90
27759;DHT22;15148;48.972;12.794;2022-12-18T07:32:30;-7.90;99.90
27759;DHT22;15148;48.972;12.794;2022-12-18T07:37:32;-7.80;99.90
27759;DHT22;15148;48.972;12.794;2022-12-18T07:42:34;-7.60;99.90
27759;DHT22;15148;48.972;12.794;2022-12-18T07:47:36;-7.60;99.90
27759;DHT22;15148;48.972;12.794;2022-12-18T07:52:38;-7.60;99.90
27759;DHT22;15148;48.972;12.794;2022-12-18T07:57:40;-7.60;99.90
27759;DHT22;15148;48.972;12.794;2022-12-18T08:02:51;-7.50;99.90
27759;DHT22;15148;48.972;12.794;2022-12-18T08:07:54;-7.60;99.90
27759;DHT22;15148;48.972;12.794;2022-12-18T08:12:56;-7.40;99.90
27759;DHT22;15148;48.972;12.794;2022-12-18T08:18:05;-7.30;99.90
27759;DHT22;15148;48.972;12.794;2022-12-18T08:23:13;-7.30;99.90
27759;DHT22;15148;48.972;12.794;2022-12-18T08:28:18;-7.20;99.90
27759;DHT22;15148;48.972;12.794;2022-12-18T08:33:19;-7.10;99.90
27759;DHT22;15148;48.972;12.794;2022-12-18T08:38:21;-6.90;99.90
27759;DHT22;15148;48.972;12.794;2022-12-18T08:43:24;-6.90;99.90
27759;DHT22;15148;48.972;12.794;2022-12-18T08:48:44;-6.70;99.90
27759;DHT22;15148;48.972;12.794;2022-12-18T08:53:46;-6.60;99.90
27759;DHT22;15148;48.972;12.794;2022-12-18T08:58:51;-6.50;99.90
27759;DHT22;15148;48.972;12.794;2022-12-18T09:03:54;-6.40;99.90
27759;DHT22;15148;48.972;12.794;2022-12-18T09:08:57;-6.50;99.90
27759;DHT22;15148;48.972;12.794;2022-12-18T09:14:00;-6.40;99.90
27759;DHT22;15148;48.972;12.794;2022-12-18T09:19:03;-6.40;99.90
27759;DHT22;15148;48.972;12.794;2022-12-18T09:24:06;-6.10;99.90
27759;DHT22;15148;48.972;12.794;2022-12-18T09:29:09;-5.90;99.90
27759;DHT22;15148;48.972;12.794;2022-12-18T09:34:11;-5.80;99.90
27759;DHT22;15148;48.972;12.794;2022-12-18T09:39:13;-5.50;99.90
27759;DHT22;15148;48.972;12.794;2022-12-18T09:44:24;-5.40;99.90
27759;DHT22;15148;48.972;12.794;2022-12-18T09:49:30;-5.40;99.90
27759;DHT22;15148;48.972;12.794;2022-12-18T09:54:39;-5.40;99.90
27759;DHT22;15148;48.972;12.794;2022-12-18T09:59:42;-5.40;99.90
27759;DHT22;15148;48.972;12.794;2022-12-18T10:10:30;-5.10;99.90
27759;DHT22;15148;48.972;12.794;2022-12-18T10:15:42;-5.00;99.90
27759;DHT22;15148;48.972;12.794;2022-12-18T10:20:53;-4.90;99.90
27759;DHT22;15148;48.972;12.794;2022-12-18T10:26:05;-4.90;99.90
27759;DHT22;15148;48.972;12.794;2022-12-18T10:36:14;-4.80;99.90
27759;DHT22;15148;48.972;12.794;2022-12-18T10:46:28;-4.70;99.90
27759;DHT22;15148;48.972;12.794;2022-12-18T10:51:32;-4.60;99.90
27759;DHT22;15148;48.972;12.794;2022-12-18T10:56:38;-4.70;99.90
27759;DHT22;15148;48.972;12.794;2022-12-18T11:01:53;-4.60;99.90
27759;DHT22;15148;48.972;12.794;2022-12-18T11:07:04;-4.60;99.90
27759;DHT22;15148;48.972;12.794;2022-12-18T11:12:21;-4.50;99.90
27759;DHT22;15148;48.972;12.794;2022-12-18T11:17:32;-4.60;99.90
27759;DHT22;15148;48.972;12.794;2022-12-18T11:22:36;-4.40;99.90
27759;DHT22;15148;48.972;12.794;2022-12-18T11:27:40;-4.20;99.90
27759;DHT22;15148;48.972;12.794;2022-12-18T11:32:48;-4.00;99.90
27759;DHT22;15148;48.972;12.794;2022-12-18T11:37:57;-3.90;99.90
27759;DHT22;15148;48.972;12.794;2022-12-18T11:43:10;-3.80;99.90
27759;DHT22;15148;48.972;12.794;2022-12-18T11:48:28;-3.70;99.90
27759;DHT22;15148;48.972;12.794;2022-12-18T11:53:31;-3.50;99.90
27759;DHT22;15148;48.972;12.794;2022-12-18T12:04:08;-3.30;99.90
27759;DHT22;15148;48.972;12.794;2022-12-18T12:09:24;-3.30;99.90
27759;DHT22;15148;48.972;12.794;2022-12-18T12:19:45;-3.00;99.90
27759;DHT22;15148;48.972;12.794;2022-12-18T12:30:24;-3.00;99.90
27759;DHT22;15148;48.972;12.794;2022-12-18T12:35:55;-3.10;99.90
27759;DHT22;15148;48.972;12.794;2022-12-18T12:41:04;-3.20;99.90
27759;DHT22;15148;48.972;12.794;2022-12-18T12:46:12;-3.20;99.90
27759;DHT22;15148;48.972;12.794;2022-12-18T12:51:27;-3.20;99.90
27759;DHT22;15148;48.972;12.794;2022-12-18T12:56:40;-3.30;99.90
27759;DHT22;15148;48.972;12.794;2022-12-18T13:02:03;-3.60;99.90
27759;DHT22;15148;48.972;12.794;2022-12-18T13:07:15;-4.10;99.90
27759;DHT22;15148;48.972;12.794;2022-12-18T13:12:20;-4.20;99.90
27759;DHT22;15148;48.972;12.794;2022-12-18T13:17:40;-4.20;99.90
27759;DHT22;15148;48.972;12.794;2022-12-18T13:22:48;-4.10;99.90
27759;DHT22;15148;48.972;12.794;2022-12-18T13:28:13;-4.30;99.90
27759;DHT22;15148;48.972;12.794;2022-12-18T13:43:46;-5.10;99.90
27759;DHT22;15148;48.972;12.794;2022-12-18T13:54:35;-5.20;99.90
27759;DHT22;15148;48.972;12.794;2022-12-18T13:59:40;-5.30;99.90
27759;DHT22;15148;48.972;12.794;2022-12-18T14:04:45;-5.30;99.90
27759;DHT22;15148;48.972;12.794;2022-12-18T14:09:53;-5.30;99.90
27759;DHT22;15148;48.972;12.794;2022-12-18T14:15:30;-5.30;99.90
27759;DHT22;15148;48.972;12.794;2022-12-18T14:20:34;-5.20;99.90
27759;DHT22;15148;48.972;12.794;2022-12-18T14:25:36;-5.10;99.90
27759;DHT22;15148;48.972;12.794;2022-12-18T14:30:42;-5.20;99.90
27759;DHT22;15148;48.972;12.794;2022-12-18T14:36:04;-5.30;99.90
27759;DHT22;15148;48.972;12.794;2022-12-18T14:41:14;-5.40;99.90
27759;DHT22;15148;48.972;12.794;2022-12-18T14:46:35;-5.30;99.90
27759;DHT22;15148;48.972;12.794;2022-12-18T14:51:37;-5.40;99.90
27759;DHT22;15148;48.972;12.794;2022-12-18T14:57:05;-5.40;99.90
27759;DHT22;15148;48.972;12.794;2022-12-18T15:02:22;-5.50;99.90
27759;DHT22;15148;48.972;12.794;2022-12-18T15:07:24;-5.60;99.90
27759;DHT22;15148;48.972;12.794;2022-12-18T15:13:05;-6.00;99.90
27759;DHT22;15148;48.972;12.794;2022-12-18T15:18:03;-6.10;99.90
27759;DHT22;15148;48.972;12.794;2022-12-18T15:23:12;-6.10;99.90
27759;DHT22;15148;48.972;12.794;2022-12-18T15:38:55;-6.40;99.90
27759;DHT22;15148;48.972;12.794;2022-12-18T15:44:22;-6.40;99.90
27759;DHT22;15148;48.972;12.794;2022-12-18T15:49:24;-6.50;99.90
27759;DHT22;15148;48.972;12.794;2022-12-18T15:54:26;-6.60;99.90
27759;DHT22;15148;48.972;12.794;2022-12-18T15:59:46;-6.60;99.90
27759;DHT22;15148;48.972;12.794;2022-12-18T16:04:50;-6.70;99.90
27759;DHT22;15148;48.972;12.794;2022-12-18T16:09:53;-6.70;99.90
27759;DHT22;15148;48.972;12.794;2022-12-18T16:14:56;-6.70;99.90
27759;DHT22;15148;48.972;12.794;2022-12-18T16:19:58;-6.70;99.90
27759;DHT22;15148;48.972;12.794;2022-12-18T16:24:59;-6.70;99.90
27759;DHT22;15148;48.972;12.794;2022-12-18T16:30:01;-6.60;99.90
27759;DHT22;15148;48.972;12.794;2022-12-18T16:35:03;-6.50;99.90
27759;DHT22;15148;48.972;12.794;2022-12-18T16:40:11;-6.50;99.90
27759;DHT22;15148;48.972;12.794;2022-12-18T16:45:16;-6.40;99.90
27759;DHT22;15148;48.972;12.794;2022-12-18T16:50:18;-6.40;99.90
27759;DHT22;15148;48.972;12.794;2022-12-18T16:55:19;-6.30;99.90
27759;DHT22;15148;48.972;12.794;2022-12-18T17:00:21;-6.30;99.90
27759;DHT22;15148;48.972;12.794;2022-12-18T17:05:23;-6.20;99.90
27759;DHT22;15148;48.972;12.794;2022-12-18T17:10:25;-6.20;99.90
27759;DHT22;15148;48.972;12.794;2022-12-18T17:15:26;-6.20;99.90
27759;DHT22;15148;48.972;12.794;2022-12-18T17:20:29;-6.30;99.90
27759;DHT22;15148;48.972;12.794;2022-12-18T17:25:31;-6.30;99.90
27759;DHT22;15148;48.972;12.794;2022-12-18T17:30:33;-6.30;99.90
27759;DHT22;15148;48.972;12.794;2022-12-18T17:35:35;-6.40;99.90
27759;DHT22;15148;48.972;12.794;2022-12-18T17:40:37;-6.60;99.90
27759;DHT22;15148;48.972;12.794;2022-12-18T17:45:46;-6.60;99.90
27759;DHT22;15148;48.972;12.794;2022-12-18T17:50:48;-6.60;99.90
27759;DHT22;15148;48.972;12.794;2022-12-18T17:55:57;-6.70;99.90
27759;DHT22;15148;48.972;12.794;2022-12-18T18:01:00;-6.70;99.90
27759;DHT22;15148;48.972;12.794;2022-12-18T18:06:02;-6.70;99.90
27759;DHT22;15148;48.972;12.794;2022-12-18T18:11:12;-6.70;99.90
27759;DHT22;15148;48.972;12.794;2022-12-18T18:16:42;-6.60;99.90
27759;DHT22;15148;48.972;12.794;2022-12-18T18:21:46;-6.50;99.90
27759;DHT22;15148;48.972;12.794;2022-12-18T18:26:48;-6.40;99.90
27759;DHT22;15148;48.972;12.794;2022-12-18T18:31:50;-6.30;99.90
27759;DHT22;15148;48.972;12.794;2022-12-18T18:36:52;-6.20;99.90
27759;DHT22;15148;48.972;12.794;2022-12-18T18:41:54;-6.10;99.90
27759;DHT22;15148;48.972;12.794;2022-12-18T18:46:57;-6.00;99.90
27759;DHT22;15148;48.972;12.794;2022-12-18T18:51:58;-6.00;99.90
27759;DHT22;15148;48.972;12.794;2022-12-18T18:57:00;-5.90;99.90
27759;DHT22;15148;48.972;12.794;2022-12-18T19:02:22;-5.70;99.90
27759;DHT22;15148;48.972;12.794;2022-12-18T19:07:26;-5.60;99.90
27759;DHT22;15148;48.972;12.794;2022-12-18T19:12:32;-5.50;99.90
27759;DHT22;15148;48.972;12.794;2022-12-18T19:17:55;-5.40;99.90
27759;DHT22;15148;48.972;12.794;2022-12-18T19:22:57;-5.50;99.90
27759;DHT22;15148;48.972;12.794;2022-12-18T19:27:59;-5.40;99.90
27759;DHT22;15148;48.972;12.794;2022-12-18T19:33:01;-5.40;99.90
27759;DHT22;15148;48.972;12.794;2022-12-18T19:38:23;-5.30;99.90
27759;DHT22;15148;48.972;12.794;2022-12-18T19:43:24;-5.30;99.90
27759;DHT22;15148;48.972;12.794;2022-12-18T19:48:27;-5.30;99.90
27759;DHT22;15148;48.972;12.794;2022-12-18T19:53:28;-5.20;99.90
27759;DHT22;15148;48.972;12.794;2022-12-18T19:58:30;-5.10;99.90
27759;DHT22;15148;48.972;12.794;2022-12-18T20:03:32;-5.10;99.90
27759;DHT22;15148;48.972;12.794;2022-12-18T20:08:34;-5.10;99.90
27759;DHT22;15148;48.972;12.794;2022-12-18T20:13:36;-5.10;99.90
27759;DHT22;15148;48.972;12.794;2022-12-18T20:18:39;-5.10;99.90
27759;DHT22;15148;48.972;12.794;2022-12-18T20:23:41;-5.10;99.90
27759;DHT22;15148;48.972;12.794;2022-12-18T20:28:43;-5.10;99.90
27759;DHT22;15148;48.972;12.794;2022-12-18T20:33:45;-5.00;99.90
27759;DHT22;15148;48.972;12.794;2022-12-18T20:38:49;-5.00;99.90
27759;DHT22;15148;48.972;12.794;2022-12-18T20:43:58;-5.00;99.90
27759;DHT22;15148;48.972;12.794;2022-12-18T20:49:00;-5.10;99.90
27759;DHT22;15148;48.972;12.794;2022-12-18T20:54:03;-5.00;99.90
27759;DHT22;15148;48.972;12.794;2022-12-18T20:59:12;-4.90;99.90
27759;DHT22;15148;48.972;12.794;2022-12-18T21:04:13;-4.90;99.90
27759;DHT22;15148;48.972;12.794;2022-12-18T21:09:18;-4.90;99.90
27759;DHT22;15148;48.972;12.794;2022-12-18T21:14:23;-4.90;99.90
27759;DHT22;15148;48.972;12.794;2022-12-18T21:19:26;-4.90;99.90
27759;DHT22;15148;48.972;12.794;2022-12-18T21:24:28;-5.00;99.90
27759;DHT22;15148;48.972;12.794;2022-12-18T21:29:33;-5.00;99.90
27759;DHT22;15148;48.972;12.794;2022-12-18T21:34:35;-4.80;99.90
27759;DHT22;15148;48.972;12.794;2022-12-18T21:39:38;-4.80;99.90
27759;DHT22;15148;48.972;12.794;2022-12-18T21:44:40;-4.70;99.90
27759;DHT22;15148;48.972;12.794;2022-12-18T21:49:43;-4.70;99.90
27759;DHT22;15148;48.972;12.794;2022-12-18T21:54:45;-4.70;99.90
27759;DHT22;15148;48.972;12.794;2022-12-18T21:59:46;-4.80;99.90
27759;DHT22;15148;48.972;12.794;2022-12-18T22:04:50;-4.90;99.90
27759;DHT22;15148;48.972;12.794;2022-12-18T22:09:51;-5.00;99.90
27759;DHT22;15148;48.972;12.794;2022-12-18T22:14:53;-4.90;99.90
27759;DHT22;15148;48.972;12.794;2022-12-18T22:19:55;-4.90;99.90
27759;DHT22;15148;48.972;12.794;2022-12-18T22:24:57;-4.90;99.90
27759;DHT22;15148;48.972;12.794;2022-12-18T22:29:58;-4.90;99.90
27759;DHT22;15148;48.972;12.794;2022-12-18T22:35:06;-5.00;99.90
27759;DHT22;15148;48.972;12.794;2022-12-18T22:40:21;-5.00;99.90
27759;DHT22;15148;48.972;12.794;2022-12-18T22:45:26;-5.10;99.90
27759;DHT22;15148;48.972;12.794;2022-12-18T22:50:28;-5.10;99.90
27759;DHT22;15148;48.972;12.794;2022-12-18T22:55:30;-5.10;99.90
27759;DHT22;15148;48.972;12.794;2022-12-18T23:00:32;-5.10;99.90
27759;DHT22;15148;48.972;12.794;2022-12-18T23:05:34;-5.10;99.90
27759;DHT22;15148;48.972;12.794;2022-12-18T23:10:36;-5.10;99.90
27759;DHT22;15148;48.972;12.794;2022-12-18T23:15:42;-5.10;99.90
27759;DHT22;15148;48.972;12.794;2022-12-18T23:20:44;-5.20;99.90
27759;DHT22;15148;48.972;12.794;2022-12-18T23:25:46;-5.20;99.90
27759;DHT22;15148;48.972;12.794;2022-12-18T23:30:48;-5.20;99.90
27759;DHT22;15148;48.972;12.794;2022-12-18T23:35:50;-5.20;99.90
27759;DHT22;15148;48.972;12.794;2022-12-18T23:40:52;-5.20;99.90
27759;DHT22;15148;48.972;12.794;2022-12-18T23:46:00;-5.10;99.90
27759;DHT22;15148;48.972;12.794;2022-12-18T23:51:12;-5.10;99.90
27759;DHT22;15148;48.972;12.794;2022-12-18T23:56:14;-5.10;99.90
